sensor_id;sensor_type;location;lat;lon;timestamp;P1;durP1;ratioP1;P2;durP2;ratioP2
11510;SDS011;5812;48.864;9.190;2023-03-14T00:01:21;0.50;;;0.50;;
11510;SDS011;5812;48.864;9.190;2023-03-14T00:03:48;0.40;;;0.40;;
11510;SDS011;5812;48.864;9.190;2023-03-14T00:06:14;0.70;;;0.70;;
11510;SDS011;5812;48.864;9.190;2023-03-14T00:08:40;0.50;;;0.50;;
11510;SDS011;5812;48.864;9.190;2023-03-14T00:11:11;0.70;;;0.70;;
11510;SDS011;5812;48.864;9.190;2023-03-14T00:13:42;0.60;;;0.60;;
11510;SDS011;5812;48.864;9.190;2023-03-14T00:16:09;0.43;;;0.43;;
11510;SDS011;5812;48.864;9.190;2023-03-14T00:18:36;0.60;;;0.60;;
11510;SDS011;5812;48.864;9.190;2023-03-14T00:21:03;0.20;;;0.20;;
11510;SDS011;5812;48.864;9.190;2023-03-14T00:23:30;0.30;;;0.30;;
11510;SDS011;5812;48.864;9.190;2023-03-14T00:26:05;0.23;;;0.23;;
11510;SDS011;5812;48.864;9.190;2023-03-14T00:28:33;0.40;;;0.40;;
11510;SDS011;5812;48.864;9.190;2023-03-14T00:31:01;0.40;;;0.40;;
11510;SDS011;5812;48.864;9.190;2023-03-14T00:33:29;0.57;;;0.57;;
11510;SDS011;5812;48.864;9.190;2023-03-14T00:35:58;0.30;;;0.30;;
11510;SDS011;5812;48.864;9.190;2023-03-14T00:38:26;0.63;;;0.63;;
11510;SDS011;5812;48.864;9.190;2023-03-14T00:40:52;0.50;;;0.50;;
11510;SDS011;5812;48.864;9.190;2023-03-14T00:43:18;0.40;;;0.40;;
11510;SDS011;5812;48.864;9.190;2023-03-14T00:45:46;0.40;;;0.40;;
11510;SDS011;5812;48.864;9.190;2023-03-14T00:48:13;0.57;;;0.57;;
11510;SDS011;5812;48.864;9.190;2023-03-14T00:50:38;0.40;;;0.40;;
11510;SDS011;5812;48.864;9.190;2023-03-14T00:53:04;0.30;;;0.30;;
11510;SDS011;5812;48.864;9.190;2023-03-14T00:55:30;0.20;;;0.20;;
11510;SDS011;5812;48.864;9.190;2023-03-14T00:57:55;0.43;;;0.43;;
11510;SDS011;5812;48.864;9.190;2023-03-14T01:00:21;0.30;;;0.30;;
11510;SDS011;5812;48.864;9.190;2023-03-14T01:02:47;0.50;;;0.50;;
11510;SDS011;5812;48.864;9.190;2023-03-14T01:05:13;0.30;;;0.30;;
11510;SDS011;5812;48.864;9.190;2023-03-14T01:07:39;0.47;;;0.47;;
11510;SDS011;5812;48.864;9.190;2023-03-14T01:10:05;0.40;;;0.40;;
11510;SDS011;5812;48.864;9.190;2023-03-14T01:12:31;0.37;;;0.37;;
11510;SDS011;5812;48.864;9.190;2023-03-14T01:14:56;0.40;;;0.40;;
11510;SDS011;5812;48.864;9.190;2023-03-14T01:17:22;0.40;;;0.40;;
11510;SDS011;5812;48.864;9.190;2023-03-14T01:19:48;0.40;;;0.40;;
11510;SDS011;5812;48.864;9.190;2023-03-14T01:22:13;0.30;;;0.30;;
11510;SDS011;5812;48.864;9.190;2023-03-14T01:24:39;0.33;;;0.33;;
11510;SDS011;5812;48.864;9.190;2023-03-14T01:27:05;0.30;;;0.30;;
11510;SDS011;5812;48.864;9.190;2023-03-14T01:29:30;0.20;;;0.20;;
11510;SDS011;5812;48.864;9.190;2023-03-14T01:31:56;0.43;;;0.43;;
11510;SDS011;5812;48.864;9.190;2023-03-14T01:34:22;0.53;;;0.53;;
11510;SDS011;5812;48.864;9.190;2023-03-14T01:36:47;0.33;;;0.33;;
11510;SDS011;5812;48.864;9.190;2023-03-14T01:39:13;0.63;;;0.63;;
11510;SDS011;5812;48.864;9.190;2023-03-14T01:41:39;0.47;;;0.47;;
11510;SDS011;5812;48.864;9.190;2023-03-14T01:44:05;0.40;;;0.40;;
11510;SDS011;5812;48.864;9.190;2023-03-14T01:46:40;0.40;;;0.40;;
11510;SDS011;5812;48.864;9.190;2023-03-14T01:52:13;0.40;;;0.40;;
11510;SDS011;5812;48.864;9.190;2023-03-14T01:54:43;0.30;;;0.30;;
11510;SDS011;5812;48.864;9.190;2023-03-14T02:00:07;0.30;;;0.30;;
11510;SDS011;5812;48.864;9.190;2023-03-14T02:02:36;0.20;;;0.20;;
11510;SDS011;5812;48.864;9.190;2023-03-14T02:05:04;0.50;;;0.50;;
11510;SDS011;5812;48.864;9.190;2023-03-14T02:07:35;0.50;;;0.50;;
11510;SDS011;5812;48.864;9.190;2023-03-14T02:10:06;0.40;;;0.40;;
11510;SDS011;5812;48.864;9.190;2023-03-14T02:12:32;0.33;;;0.33;;
11510;SDS011;5812;48.864;9.190;2023-03-14T02:14:59;0.30;;;0.30;;
11510;SDS011;5812;48.864;9.190;2023-03-14T02:17:25;0.20;;;0.20;;
11510;SDS011;5812;48.864;9.190;2023-03-14T02:19:57;0.20;;;0.20;;
11510;SDS011;5812;48.864;9.190;2023-03-14T02:22:30;0.47;;;0.47;;
11510;SDS011;5812;48.864;9.190;2023-03-14T02:27:35;0.40;;;0.40;;
11510;SDS011;5812;48.864;9.190;2023-03-14T02:30:04;0.30;;;0.30;;
11510;SDS011;5812;48.864;9.190;2023-03-14T02:32:33;0.30;;;0.30;;
11510;SDS011;5812;48.864;9.190;2023-03-14T02:35:02;0.40;;;0.40;;
11510;SDS011;5812;48.864;9.190;2023-03-14T02:40:22;0.37;;;0.37;;
11510;SDS011;5812;48.864;9.190;2023-03-14T02:42:48;0.30;;;0.30;;
11510;SDS011;5812;48.864;9.190;2023-03-14T02:47:40;0.20;;;0.20;;
11510;SDS011;5812;48.864;9.190;2023-03-14T02:50:10;0.23;;;0.23;;
11510;SDS011;5812;48.864;9.190;2023-03-14T02:52:39;0.30;;;0.30;;
11510;SDS011;5812;48.864;9.190;2023-03-14T02:55:05;0.23;;;0.23;;
11510;SDS011;5812;48.864;9.190;2023-03-14T02:57:31;0.50;;;0.50;;
11510;SDS011;5812;48.864;9.190;2023-03-14T02:59:59;0.40;;;0.40;;
11510;SDS011;5812;48.864;9.190;2023-03-14T03:02:26;0.30;;;0.30;;
11510;SDS011;5812;48.864;9.190;2023-03-14T03:04:52;0.30;;;0.30;;
11510;SDS011;5812;48.864;9.190;2023-03-14T03:07:18;0.30;;;0.30;;
11510;SDS011;5812;48.864;9.190;2023-03-14T03:09:44;0.20;;;0.20;;
11510;SDS011;5812;48.864;9.190;2023-03-14T03:12:10;0.40;;;0.40;;
11510;SDS011;5812;48.864;9.190;2023-03-14T03:14:35;0.43;;;0.43;;
11510;SDS011;5812;48.864;9.190;2023-03-14T03:17:02;0.27;;;0.27;;
11510;SDS011;5812;48.864;9.190;2023-03-14T03:19:29;0.50;;;0.50;;
11510;SDS011;5812;48.864;9.190;2023-03-14T03:21:55;0.50;;;0.50;;
11510;SDS011;5812;48.864;9.190;2023-03-14T03:24:21;0.63;;;0.63;;
11510;SDS011;5812;48.864;9.190;2023-03-14T03:26:46;0.30;;;0.30;;
11510;SDS011;5812;48.864;9.190;2023-03-14T03:29:12;0.40;;;0.40;;
11510;SDS011;5812;48.864;9.190;2023-03-14T03:31:38;0.60;;;0.60;;
11510;SDS011;5812;48.864;9.190;2023-03-14T03:34:03;0.47;;;0.47;;
11510;SDS011;5812;48.864;9.190;2023-03-14T03:36:29;0.50;;;0.50;;
11510;SDS011;5812;48.864;9.190;2023-03-14T03:38:55;0.40;;;0.40;;
11510;SDS011;5812;48.864;9.190;2023-03-14T03:41:20;0.67;;;0.67;;
11510;SDS011;5812;48.864;9.190;2023-03-14T03:43:46;0.60;;;0.60;;
11510;SDS011;5812;48.864;9.190;2023-03-14T03:46:11;0.30;;;0.30;;
11510;SDS011;5812;48.864;9.190;2023-03-14T03:48:37;0.47;;;0.47;;
11510;SDS011;5812;48.864;9.190;2023-03-14T03:51:03;0.43;;;0.43;;
11510;SDS011;5812;48.864;9.190;2023-03-14T03:53:29;0.40;;;0.40;;
11510;SDS011;5812;48.864;9.190;2023-03-14T03:55:54;0.60;;;0.60;;
11510;SDS011;5812;48.864;9.190;2023-03-14T03:58:20;0.30;;;0.30;;
11510;SDS011;5812;48.864;9.190;2023-03-14T04:00:45;0.40;;;0.40;;
11510;SDS011;5812;48.864;9.190;2023-03-14T04:03:11;0.97;;;0.97;;
11510;SDS011;5812;48.864;9.190;2023-03-14T04:05:37;0.53;;;0.53;;
11510;SDS011;5812;48.864;9.190;2023-03-14T04:08:02;0.40;;;0.40;;
11510;SDS011;5812;48.864;9.190;2023-03-14T04:10:29;0.73;;;0.73;;
11510;SDS011;5812;48.864;9.190;2023-03-14T04:12:54;0.90;;;0.90;;
11510;SDS011;5812;48.864;9.190;2023-03-14T04:15:20;0.47;;;0.47;;
11510;SDS011;5812;48.864;9.190;2023-03-14T04:17:46;0.43;;;0.43;;
11510;SDS011;5812;48.864;9.190;2023-03-14T04:20:11;0.70;;;0.70;;
11510;SDS011;5812;48.864;9.190;2023-03-14T04:22:38;0.60;;;0.60;;
11510;SDS011;5812;48.864;9.190;2023-03-14T04:25:04;0.70;;;0.70;;
11510;SDS011;5812;48.864;9.190;2023-03-14T04:27:30;0.90;;;0.90;;
11510;SDS011;5812;48.864;9.190;2023-03-14T04:29:56;0.77;;;0.77;;
11510;SDS011;5812;48.864;9.190;2023-03-14T04:32:22;0.60;;;0.60;;
11510;SDS011;5812;48.864;9.190;2023-03-14T04:34:48;0.93;;;0.93;;
11510;SDS011;5812;48.864;9.190;2023-03-14T04:37:13;0.60;;;0.60;;
11510;SDS011;5812;48.864;9.190;2023-03-14T04:39:39;0.60;;;0.60;;
11510;SDS011;5812;48.864;9.190;2023-03-14T04:42:05;0.77;;;0.77;;
11510;SDS011;5812;48.864;9.190;2023-03-14T04:44:30;0.60;;;0.60;;
11510;SDS011;5812;48.864;9.190;2023-03-14T04:46:56;0.70;;;0.70;;
11510;SDS011;5812;48.864;9.190;2023-03-14T04:49:22;0.50;;;0.50;;
11510;SDS011;5812;48.864;9.190;2023-03-14T04:51:48;1.10;;;1.10;;
11510;SDS011;5812;48.864;9.190;2023-03-14T04:54:15;0.53;;;0.53;;
11510;SDS011;5812;48.864;9.190;2023-03-14T04:56:41;0.70;;;0.70;;
11510;SDS011;5812;48.864;9.190;2023-03-14T04:59:06;0.90;;;0.90;;
11510;SDS011;5812;48.864;9.190;2023-03-14T05:01:33;0.77;;;0.77;;
11510;SDS011;5812;48.864;9.190;2023-03-14T05:03:59;0.70;;;0.70;;
11510;SDS011;5812;48.864;9.190;2023-03-14T05:06:24;0.70;;;0.70;;
11510;SDS011;5812;48.864;9.190;2023-03-14T05:08:50;0.93;;;0.93;;
11510;SDS011;5812;48.864;9.190;2023-03-14T05:11:16;0.37;;;0.37;;
11510;SDS011;5812;48.864;9.190;2023-03-14T05:13:41;0.90;;;0.90;;
11510;SDS011;5812;48.864;9.190;2023-03-14T05:16:08;0.67;;;0.67;;
11510;SDS011;5812;48.864;9.190;2023-03-14T05:18:35;1.13;;;1.13;;
11510;SDS011;5812;48.864;9.190;2023-03-14T05:21:01;0.60;;;0.60;;
11510;SDS011;5812;48.864;9.190;2023-03-14T05:23:27;0.57;;;0.57;;
11510;SDS011;5812;48.864;9.190;2023-03-14T05:25:53;1.00;;;1.00;;
11510;SDS011;5812;48.864;9.190;2023-03-14T05:28:18;0.50;;;0.50;;
11510;SDS011;5812;48.864;9.190;2023-03-14T05:30:44;0.90;;;0.90;;
11510;SDS011;5812;48.864;9.190;2023-03-14T05:33:09;1.20;;;1.20;;
11510;SDS011;5812;48.864;9.190;2023-03-14T05:35:35;1.20;;;1.20;;
11510;SDS011;5812;48.864;9.190;2023-03-14T05:38:01;0.90;;;0.90;;
11510;SDS011;5812;48.864;9.190;2023-03-14T05:40:26;1.20;;;1.20;;
11510;SDS011;5812;48.864;9.190;2023-03-14T05:42:52;0.80;;;0.80;;
11510;SDS011;5812;48.864;9.190;2023-03-14T05:45:17;4.10;;;4.10;;
11510;SDS011;5812;48.864;9.190;2023-03-14T05:47:43;4.67;;;4.67;;
11510;SDS011;5812;48.864;9.190;2023-03-14T05:50:09;2.87;;;2.87;;
11510;SDS011;5812;48.864;9.190;2023-03-14T05:52:35;1.50;;;1.50;;
11510;SDS011;5812;48.864;9.190;2023-03-14T05:55:01;0.70;;;0.70;;
11510;SDS011;5812;48.864;9.190;2023-03-14T05:57:27;0.60;;;0.60;;
11510;SDS011;5812;48.864;9.190;2023-03-14T05:59:52;0.73;;;0.73;;
11510;SDS011;5812;48.864;9.190;2023-03-14T06:02:18;0.87;;;0.87;;
11510;SDS011;5812;48.864;9.190;2023-03-14T06:04:44;0.73;;;0.73;;
11510;SDS011;5812;48.864;9.190;2023-03-14T06:07:09;0.60;;;0.60;;
11510;SDS011;5812;48.864;9.190;2023-03-14T06:09:35;0.73;;;0.73;;
11510;SDS011;5812;48.864;9.190;2023-03-14T06:12:00;1.00;;;1.00;;
11510;SDS011;5812;48.864;9.190;2023-03-14T06:14:26;0.73;;;0.73;;
11510;SDS011;5812;48.864;9.190;2023-03-14T06:16:52;0.90;;;0.90;;
11510;SDS011;5812;48.864;9.190;2023-03-14T06:19:18;0.70;;;0.70;;
11510;SDS011;5812;48.864;9.190;2023-03-14T06:21:43;0.90;;;0.90;;
11510;SDS011;5812;48.864;9.190;2023-03-14T06:24:09;1.03;;;1.03;;
11510;SDS011;5812;48.864;9.190;2023-03-14T06:26:35;1.43;;;1.43;;
11510;SDS011;5812;48.864;9.190;2023-03-14T06:29:00;1.60;;;1.60;;
11510;SDS011;5812;48.864;9.190;2023-03-14T06:31:28;1.30;;;1.30;;
11510;SDS011;5812;48.864;9.190;2023-03-14T06:33:57;1.27;;;1.27;;
11510;SDS011;5812;48.864;9.190;2023-03-14T06:36:24;1.00;;;1.00;;
11510;SDS011;5812;48.864;9.190;2023-03-14T06:38:50;0.87;;;0.87;;
11510;SDS011;5812;48.864;9.190;2023-03-14T06:41:15;0.57;;;0.57;;
11510;SDS011;5812;48.864;9.190;2023-03-14T06:43:41;2.40;;;2.40;;
11510;SDS011;5812;48.864;9.190;2023-03-14T06:46:07;0.63;;;0.63;;
11510;SDS011;5812;48.864;9.190;2023-03-14T06:48:32;0.80;;;0.80;;
11510;SDS011;5812;48.864;9.190;2023-03-14T06:50:58;1.00;;;1.00;;
11510;SDS011;5812;48.864;9.190;2023-03-14T06:53:24;1.50;;;1.50;;
11510;SDS011;5812;48.864;9.190;2023-03-14T06:55:49;1.17;;;1.17;;
11510;SDS011;5812;48.864;9.190;2023-03-14T06:58:15;0.63;;;0.63;;
11510;SDS011;5812;48.864;9.190;2023-03-14T07:00:41;0.63;;;0.63;;
11510;SDS011;5812;48.864;9.190;2023-03-14T07:03:07;0.50;;;0.50;;
11510;SDS011;5812;48.864;9.190;2023-03-14T07:05:32;1.50;;;1.50;;
11510;SDS011;5812;48.864;9.190;2023-03-14T07:07:58;0.80;;;0.80;;
11510;SDS011;5812;48.864;9.190;2023-03-14T07:10:24;0.80;;;0.80;;
11510;SDS011;5812;48.864;9.190;2023-03-14T07:12:49;0.60;;;0.60;;
11510;SDS011;5812;48.864;9.190;2023-03-14T07:15:15;0.70;;;0.70;;
11510;SDS011;5812;48.864;9.190;2023-03-14T07:17:41;0.57;;;0.57;;
11510;SDS011;5812;48.864;9.190;2023-03-14T07:20:06;0.40;;;0.40;;
11510;SDS011;5812;48.864;9.190;2023-03-14T07:22:35;0.50;;;0.50;;
11510;SDS011;5812;48.864;9.190;2023-03-14T07:25:00;0.50;;;0.50;;
11510;SDS011;5812;48.864;9.190;2023-03-14T07:27:26;0.83;;;0.83;;
11510;SDS011;5812;48.864;9.190;2023-03-14T07:29:51;0.57;;;0.57;;
11510;SDS011;5812;48.864;9.190;2023-03-14T07:32:17;0.60;;;0.60;;
11510;SDS011;5812;48.864;9.190;2023-03-14T07:34:43;0.50;;;0.50;;
11510;SDS011;5812;48.864;9.190;2023-03-14T07:37:08;0.40;;;0.40;;
11510;SDS011;5812;48.864;9.190;2023-03-14T07:39:34;0.47;;;0.47;;
11510;SDS011;5812;48.864;9.190;2023-03-14T07:42:00;0.20;;;0.20;;
11510;SDS011;5812;48.864;9.190;2023-03-14T07:44:26;0.43;;;0.43;;
11510;SDS011;5812;48.864;9.190;2023-03-14T07:46:52;0.50;;;0.50;;
11510;SDS011;5812;48.864;9.190;2023-03-14T07:49:17;0.40;;;0.40;;
11510;SDS011;5812;48.864;9.190;2023-03-14T07:51:43;0.63;;;0.63;;
11510;SDS011;5812;48.864;9.190;2023-03-14T07:54:11;0.57;;;0.57;;
11510;SDS011;5812;48.864;9.190;2023-03-14T07:56:37;0.60;;;0.60;;
11510;SDS011;5812;48.864;9.190;2023-03-14T07:59:03;0.33;;;0.33;;
11510;SDS011;5812;48.864;9.190;2023-03-14T08:01:28;0.47;;;0.47;;
11510;SDS011;5812;48.864;9.190;2023-03-14T08:03:54;0.73;;;0.73;;
11510;SDS011;5812;48.864;9.190;2023-03-14T08:06:20;0.40;;;0.40;;
11510;SDS011;5812;48.864;9.190;2023-03-14T08:08:45;0.30;;;0.30;;
11510;SDS011;5812;48.864;9.190;2023-03-14T08:11:11;0.60;;;0.60;;
11510;SDS011;5812;48.864;9.190;2023-03-14T08:13:37;0.27;;;0.27;;
11510;SDS011;5812;48.864;9.190;2023-03-14T08:16:03;0.50;;;0.50;;
11510;SDS011;5812;48.864;9.190;2023-03-14T08:18:29;0.30;;;0.30;;
11510;SDS011;5812;48.864;9.190;2023-03-14T08:20:55;0.40;;;0.40;;
11510;SDS011;5812;48.864;9.190;2023-03-14T08:23:21;0.30;;;0.30;;
11510;SDS011;5812;48.864;9.190;2023-03-14T08:25:48;0.40;;;0.40;;
11510;SDS011;5812;48.864;9.190;2023-03-14T08:28:15;0.30;;;0.30;;
11510;SDS011;5812;48.864;9.190;2023-03-14T08:30:41;0.30;;;0.30;;
11510;SDS011;5812;48.864;9.190;2023-03-14T08:33:06;0.47;;;0.47;;
11510;SDS011;5812;48.864;9.190;2023-03-14T08:35:32;0.73;;;0.73;;
11510;SDS011;5812;48.864;9.190;2023-03-14T08:37:58;0.80;;;0.80;;
11510;SDS011;5812;48.864;9.190;2023-03-14T08:40:23;1.00;;;1.00;;
11510;SDS011;5812;48.864;9.190;2023-03-14T08:42:49;0.20;;;0.20;;
11510;SDS011;5812;48.864;9.190;2023-03-14T08:45:15;0.40;;;0.40;;
11510;SDS011;5812;48.864;9.190;2023-03-14T08:47:42;0.30;;;0.30;;
11510;SDS011;5812;48.864;9.190;2023-03-14T08:50:08;0.30;;;0.30;;
11510;SDS011;5812;48.864;9.190;2023-03-14T08:52:35;0.40;;;0.40;;
11510;SDS011;5812;48.864;9.190;2023-03-14T08:55:02;0.20;;;0.20;;
11510;SDS011;5812;48.864;9.190;2023-03-14T08:57:28;0.10;;;0.10;;
11510;SDS011;5812;48.864;9.190;2023-03-14T08:59:54;0.30;;;0.30;;
11510;SDS011;5812;48.864;9.190;2023-03-14T09:02:21;0.30;;;0.30;;
11510;SDS011;5812;48.864;9.190;2023-03-14T09:04:49;0.40;;;0.40;;
11510;SDS011;5812;48.864;9.190;2023-03-14T09:07:15;0.30;;;0.30;;
11510;SDS011;5812;48.864;9.190;2023-03-14T09:09:40;0.47;;;0.47;;
11510;SDS011;5812;48.864;9.190;2023-03-14T09:12:06;0.20;;;0.20;;
11510;SDS011;5812;48.864;9.190;2023-03-14T09:14:32;0.37;;;0.37;;
11510;SDS011;5812;48.864;9.190;2023-03-14T09:16:57;0.40;;;0.40;;
11510;SDS011;5812;48.864;9.190;2023-03-14T09:19:23;0.30;;;0.30;;
11510;SDS011;5812;48.864;9.190;2023-03-14T09:21:49;0.57;;;0.57;;
11510;SDS011;5812;48.864;9.190;2023-03-14T09:24:15;0.20;;;0.20;;
11510;SDS011;5812;48.864;9.190;2023-03-14T09:26:41;0.20;;;0.20;;
11510;SDS011;5812;48.864;9.190;2023-03-14T09:29:06;0.37;;;0.37;;
11510;SDS011;5812;48.864;9.190;2023-03-14T09:31:32;0.30;;;0.30;;
11510;SDS011;5812;48.864;9.190;2023-03-14T09:33:58;0.20;;;0.20;;
11510;SDS011;5812;48.864;9.190;2023-03-14T09:36:24;0.40;;;0.40;;
11510;SDS011;5812;48.864;9.190;2023-03-14T09:38:49;0.20;;;0.20;;
11510;SDS011;5812;48.864;9.190;2023-03-14T09:41:23;0.20;;;0.20;;
11510;SDS011;5812;48.864;9.190;2023-03-14T09:43:56;0.37;;;0.37;;
11510;SDS011;5812;48.864;9.190;2023-03-14T09:46:28;0.23;;;0.23;;
11510;SDS011;5812;48.864;9.190;2023-03-14T09:48:55;0.30;;;0.30;;
11510;SDS011;5812;48.864;9.190;2023-03-14T09:51:21;0.20;;;0.20;;
11510;SDS011;5812;48.864;9.190;2023-03-14T09:53:49;0.23;;;0.23;;
11510;SDS011;5812;48.864;9.190;2023-03-14T09:56:23;0.20;;;0.20;;
11510;SDS011;5812;48.864;9.190;2023-03-14T09:58:55;0.20;;;0.20;;
11510;SDS011;5812;48.864;9.190;2023-03-14T10:01:26;0.20;;;0.20;;
11510;SDS011;5812;48.864;9.190;2023-03-14T10:03:56;0.10;;;0.10;;
11510;SDS011;5812;48.864;9.190;2023-03-14T10:06:24;0.00;;;0.00;;
11510;SDS011;5812;48.864;9.190;2023-03-14T10:08:52;0.10;;;0.10;;
11510;SDS011;5812;48.864;9.190;2023-03-14T10:11:19;0.10;;;0.10;;
11510;SDS011;5812;48.864;9.190;2023-03-14T10:14:05;0.30;;;0.30;;
11510;SDS011;5812;48.864;9.190;2023-03-14T10:16:45;0.20;;;0.20;;
11510;SDS011;5812;48.864;9.190;2023-03-14T10:19:12;0.10;;;0.10;;
11510;SDS011;5812;48.864;9.190;2023-03-14T10:21:40;0.20;;;0.20;;
11510;SDS011;5812;48.864;9.190;2023-03-14T10:24:26;0.30;;;0.30;;
11510;SDS011;5812;48.864;9.190;2023-03-14T10:27:04;0.10;;;0.10;;
11510;SDS011;5812;48.864;9.190;2023-03-14T10:29:34;0.20;;;0.20;;
11510;SDS011;5812;48.864;9.190;2023-03-14T10:32:18;0.10;;;0.10;;
11510;SDS011;5812;48.864;9.190;2023-03-14T10:34:45;0.00;;;0.00;;
11510;SDS011;5812;48.864;9.190;2023-03-14T10:37:34;0.20;;;0.20;;
11510;SDS011;5812;48.864;9.190;2023-03-14T10:40:00;0.20;;;0.20;;
11510;SDS011;5812;48.864;9.190;2023-03-14T10:42:31;0.10;;;0.10;;
11510;SDS011;5812;48.864;9.190;2023-03-14T10:45:05;0.23;;;0.23;;
11510;SDS011;5812;48.864;9.190;2023-03-14T10:47:50;0.20;;;0.20;;
11510;SDS011;5812;48.864;9.190;2023-03-14T10:52:53;0.30;;;0.30;;
11510;SDS011;5812;48.864;9.190;2023-03-14T10:55:20;0.30;;;0.30;;
11510;SDS011;5812;48.864;9.190;2023-03-14T10:57:46;0.10;;;0.10;;
11510;SDS011;5812;48.864;9.190;2023-03-14T11:00:15;0.20;;;0.20;;
11510;SDS011;5812;48.864;9.190;2023-03-14T11:05:23;0.20;;;0.20;;
11510;SDS011;5812;48.864;9.190;2023-03-14T11:07:56;0.10;;;0.10;;
11510;SDS011;5812;48.864;9.190;2023-03-14T11:10:49;0.17;;;0.17;;
11510;SDS011;5812;48.864;9.190;2023-03-14T11:13:23;0.17;;;0.17;;
11510;SDS011;5812;48.864;9.190;2023-03-14T11:18:48;0.20;;;0.20;;
11510;SDS011;5812;48.864;9.190;2023-03-14T11:24:15;0.20;;;0.20;;
11510;SDS011;5812;48.864;9.190;2023-03-14T11:26:59;0.30;;;0.30;;
11510;SDS011;5812;48.864;9.190;2023-03-14T11:29:45;0.00;;;0.00;;
11510;SDS011;5812;48.864;9.190;2023-03-14T11:32:24;0.10;;;0.10;;
11510;SDS011;5812;48.864;9.190;2023-03-14T11:34:59;0.10;;;0.10;;
11510;SDS011;5812;48.864;9.190;2023-03-14T11:37:33;0.20;;;0.20;;
11510;SDS011;5812;48.864;9.190;2023-03-14T11:40:10;0.10;;;0.10;;
11510;SDS011;5812;48.864;9.190;2023-03-14T11:43:11;0.20;;;0.20;;
11510;SDS011;5812;48.864;9.190;2023-03-14T11:45:42;0.30;;;0.30;;
11510;SDS011;5812;48.864;9.190;2023-03-14T11:50:44;0.00;;;0.00;;
11510;SDS011;5812;48.864;9.190;2023-03-14T11:53:14;0.10;;;0.10;;
11510;SDS011;5812;48.864;9.190;2023-03-14T11:56:17;0.20;;;0.20;;
11510;SDS011;5812;48.864;9.190;2023-03-14T11:59:01;0.30;;;0.30;;
11510;SDS011;5812;48.864;9.190;2023-03-14T12:01:40;0.20;;;0.20;;
11510;SDS011;5812;48.864;9.190;2023-03-14T12:06:55;0.30;;;0.30;;
11510;SDS011;5812;48.864;9.190;2023-03-14T12:09:22;0.00;;;0.00;;
11510;SDS011;5812;48.864;9.190;2023-03-14T12:11:55;0.20;;;0.20;;
11510;SDS011;5812;48.864;9.190;2023-03-14T12:14:27;0.30;;;0.30;;
11510;SDS011;5812;48.864;9.190;2023-03-14T12:17:03;0.23;;;0.23;;
11510;SDS011;5812;48.864;9.190;2023-03-14T12:19:30;0.30;;;0.30;;
11510;SDS011;5812;48.864;9.190;2023-03-14T12:22:05;0.40;;;0.40;;
11510;SDS011;5812;48.864;9.190;2023-03-14T12:24:36;0.20;;;0.20;;
11510;SDS011;5812;48.864;9.190;2023-03-14T12:27:03;0.13;;;0.13;;
11510;SDS011;5812;48.864;9.190;2023-03-14T12:29:30;0.20;;;0.20;;
11510;SDS011;5812;48.864;9.190;2023-03-14T12:34:57;0.23;;;0.23;;
11510;SDS011;5812;48.864;9.190;2023-03-14T12:37:52;0.37;;;0.37;;
11510;SDS011;5812;48.864;9.190;2023-03-14T12:40:27;0.70;;;0.70;;
11510;SDS011;5812;48.864;9.190;2023-03-14T12:43:03;0.73;;;0.73;;
11510;SDS011;5812;48.864;9.190;2023-03-14T12:48:32;0.43;;;0.43;;
11510;SDS011;5812;48.864;9.190;2023-03-14T12:51:05;0.70;;;0.70;;
11510;SDS011;5812;48.864;9.190;2023-03-14T12:59:03;0.30;;;0.30;;
11510;SDS011;5812;48.864;9.190;2023-03-14T13:01:55;0.47;;;0.47;;
11510;SDS011;5812;48.864;9.190;2023-03-14T13:04:29;0.40;;;0.40;;
11510;SDS011;5812;48.864;9.190;2023-03-14T13:07:01;0.60;;;0.60;;
11510;SDS011;5812;48.864;9.190;2023-03-14T13:11:54;0.40;;;0.40;;
11510;SDS011;5812;48.864;9.190;2023-03-14T13:14:22;0.40;;;0.40;;
11510;SDS011;5812;48.864;9.190;2023-03-14T13:16:48;0.57;;;0.57;;
11510;SDS011;5812;48.864;9.190;2023-03-14T13:19:17;0.30;;;0.30;;
11510;SDS011;5812;48.864;9.190;2023-03-14T13:21:46;0.40;;;0.40;;
11510;SDS011;5812;48.864;9.190;2023-03-14T13:24:20;0.30;;;0.30;;
11510;SDS011;5812;48.864;9.190;2023-03-14T13:26:52;0.33;;;0.33;;
11510;SDS011;5812;48.864;9.190;2023-03-14T13:29:20;0.50;;;0.50;;
11510;SDS011;5812;48.864;9.190;2023-03-14T13:31:52;0.30;;;0.30;;
11510;SDS011;5812;48.864;9.190;2023-03-14T13:34:19;0.40;;;0.40;;
11510;SDS011;5812;48.864;9.190;2023-03-14T13:36:45;0.50;;;0.50;;
11510;SDS011;5812;48.864;9.190;2023-03-14T13:39:18;0.50;;;0.50;;
11510;SDS011;5812;48.864;9.190;2023-03-14T13:41:47;0.30;;;0.30;;
11510;SDS011;5812;48.864;9.190;2023-03-14T13:44:15;0.40;;;0.40;;
11510;SDS011;5812;48.864;9.190;2023-03-14T13:46:44;0.60;;;0.60;;
11510;SDS011;5812;48.864;9.190;2023-03-14T13:49:11;0.40;;;0.40;;
11510;SDS011;5812;48.864;9.190;2023-03-14T13:51:40;0.60;;;0.60;;
11510;SDS011;5812;48.864;9.190;2023-03-14T13:54:15;0.83;;;0.83;;
11510;SDS011;5812;48.864;9.190;2023-03-14T13:56:42;0.60;;;0.60;;
11510;SDS011;5812;48.864;9.190;2023-03-14T13:59:24;0.43;;;0.43;;
11510;SDS011;5812;48.864;9.190;2023-03-14T14:01:52;1.13;;;1.13;;
11510;SDS011;5812;48.864;9.190;2023-03-14T14:04:20;0.40;;;0.40;;
11510;SDS011;5812;48.864;9.190;2023-03-14T14:07:01;0.63;;;0.63;;
11510;SDS011;5812;48.864;9.190;2023-03-14T14:09:37;0.50;;;0.50;;
11510;SDS011;5812;48.864;9.190;2023-03-14T14:12:05;0.30;;;0.30;;
11510;SDS011;5812;48.864;9.190;2023-03-14T14:14:41;0.40;;;0.40;;
11510;SDS011;5812;48.864;9.190;2023-03-14T14:17:21;0.50;;;0.50;;
11510;SDS011;5812;48.864;9.190;2023-03-14T14:19:50;0.47;;;0.47;;
11510;SDS011;5812;48.864;9.190;2023-03-14T14:22:17;0.30;;;0.30;;
11510;SDS011;5812;48.864;9.190;2023-03-14T14:24:44;0.57;;;0.57;;
11510;SDS011;5812;48.864;9.190;2023-03-14T14:27:15;0.47;;;0.47;;
11510;SDS011;5812;48.864;9.190;2023-03-14T14:29:43;0.57;;;0.57;;
11510;SDS011;5812;48.864;9.190;2023-03-14T14:32:12;0.40;;;0.40;;
11510;SDS011;5812;48.864;9.190;2023-03-14T14:37:26;0.20;;;0.20;;
11510;SDS011;5812;48.864;9.190;2023-03-14T14:39:58;0.30;;;0.30;;
11510;SDS011;5812;48.864;9.190;2023-03-14T14:42:27;0.63;;;0.63;;
11510;SDS011;5812;48.864;9.190;2023-03-14T14:44:55;0.30;;;0.30;;
11510;SDS011;5812;48.864;9.190;2023-03-14T14:47:23;0.63;;;0.63;;
11510;SDS011;5812;48.864;9.190;2023-03-14T14:49:51;0.60;;;0.60;;
11510;SDS011;5812;48.864;9.190;2023-03-14T14:52:36;0.70;;;0.70;;
11510;SDS011;5812;48.864;9.190;2023-03-14T14:55:40;0.60;;;0.60;;
11510;SDS011;5812;48.864;9.190;2023-03-14T14:58:11;0.40;;;0.40;;
11510;SDS011;5812;48.864;9.190;2023-03-14T15:00:49;0.60;;;0.60;;
11510;SDS011;5812;48.864;9.190;2023-03-14T15:03:17;0.70;;;0.70;;
11510;SDS011;5812;48.864;9.190;2023-03-14T15:05:42;0.60;;;0.60;;
11510;SDS011;5812;48.864;9.190;2023-03-14T15:08:11;0.50;;;0.50;;
11510;SDS011;5812;48.864;9.190;2023-03-14T15:10:37;0.80;;;0.80;;
11510;SDS011;5812;48.864;9.190;2023-03-14T15:13:03;0.87;;;0.87;;
11510;SDS011;5812;48.864;9.190;2023-03-14T15:15:29;0.50;;;0.50;;
11510;SDS011;5812;48.864;9.190;2023-03-14T15:17:55;0.80;;;0.80;;
11510;SDS011;5812;48.864;9.190;2023-03-14T15:20:21;0.80;;;0.80;;
11510;SDS011;5812;48.864;9.190;2023-03-14T15:22:48;0.80;;;0.80;;
11510;SDS011;5812;48.864;9.190;2023-03-14T15:25:14;1.10;;;1.10;;
11510;SDS011;5812;48.864;9.190;2023-03-14T15:27:40;0.73;;;0.73;;
11510;SDS011;5812;48.864;9.190;2023-03-14T15:30:14;0.90;;;0.90;;
11510;SDS011;5812;48.864;9.190;2023-03-14T15:32:40;0.90;;;0.90;;
11510;SDS011;5812;48.864;9.190;2023-03-14T15:35:06;0.83;;;0.83;;
11510;SDS011;5812;48.864;9.190;2023-03-14T15:37:33;1.47;;;1.47;;
11510;SDS011;5812;48.864;9.190;2023-03-14T15:40:00;0.60;;;0.60;;
11510;SDS011;5812;48.864;9.190;2023-03-14T15:42:27;0.73;;;0.73;;
11510;SDS011;5812;48.864;9.190;2023-03-14T15:44:53;0.57;;;0.57;;
11510;SDS011;5812;48.864;9.190;2023-03-14T15:47:19;0.83;;;0.83;;
11510;SDS011;5812;48.864;9.190;2023-03-14T15:49:44;0.70;;;0.70;;
11510;SDS011;5812;48.864;9.190;2023-03-14T15:52:10;0.70;;;0.70;;
11510;SDS011;5812;48.864;9.190;2023-03-14T15:54:35;0.73;;;0.73;;